sensor_id;sensor_type;location;lat;lon;timestamp;P1;durP1;ratioP1;P2;durP2;ratioP2
946;SDS011;460;48.734;9.152;2022-07-23T00:00:13;6.10;;;3.90;;
946;SDS011;460;48.734;9.152;2022-07-23T00:02:41;3.80;;;3.30;;
946;SDS011;460;48.734;9.152;2022-07-23T00:05:09;2.70;;;2.50;;
946;SDS011;460;48.734;9.152;2022-07-23T00:07:37;2.80;;;2.60;;
946;SDS011;460;48.734;9.152;2022-07-23T00:10:06;3.73;;;2.90;;
946;SDS011;460;48.734;9.152;2022-07-23T00:12:36;3.30;;;3.00;;
946;SDS011;460;48.734;9.152;2022-07-23T00:15:09;3.33;;;3.03;;
946;SDS011;460;48.734;9.152;2022-07-23T00:17:41;3.20;;;2.47;;
946;SDS011;460;48.734;9.152;2022-07-23T00:20:09;2.57;;;2.37;;
946;SDS011;460;48.734;9.152;2022-07-23T00:22:45;3.27;;;2.00;;
946;SDS011;460;48.734;9.152;2022-07-23T00:25:13;2.50;;;2.30;;
946;SDS011;460;48.734;9.152;2022-07-23T00:27:41;5.40;;;2.40;;
946;SDS011;460;48.734;9.152;2022-07-23T00:30:10;3.20;;;2.37;;
946;SDS011;460;48.734;9.152;2022-07-23T00:32:45;3.30;;;2.90;;
946;SDS011;460;48.734;9.152;2022-07-23T00:35:14;2.13;;;1.80;;
946;SDS011;460;48.734;9.152;2022-07-23T00:37:43;2.43;;;2.23;;
946;SDS011;460;48.734;9.152;2022-07-23T00:40:10;3.10;;;2.80;;
946;SDS011;460;48.734;9.152;2022-07-23T00:42:38;3.20;;;2.50;;
946;SDS011;460;48.734;9.152;2022-07-23T00:45:06;3.67;;;2.90;;
946;SDS011;460;48.734;9.152;2022-07-23T00:47:36;3.30;;;3.00;;
946;SDS011;460;48.734;9.152;2022-07-23T00:50:05;3.33;;;2.93;;
946;SDS011;460;48.734;9.152;2022-07-23T00:52:36;3.47;;;3.10;;
946;SDS011;460;48.734;9.152;2022-07-23T00:55:04;3.17;;;2.60;;
946;SDS011;460;48.734;9.152;2022-07-23T00:57:33;2.53;;;2.33;;
946;SDS011;460;48.734;9.152;2022-07-23T01:00:01;3.20;;;2.90;;
946;SDS011;460;48.734;9.152;2022-07-23T01:02:30;3.40;;;2.70;;
946;SDS011;460;48.734;9.152;2022-07-23T01:04:58;2.93;;;2.07;;
946;SDS011;460;48.734;9.152;2022-07-23T01:07:25;3.00;;;2.70;;
946;SDS011;460;48.734;9.152;2022-07-23T01:09:52;2.27;;;2.07;;
946;SDS011;460;48.734;9.152;2022-07-23T01:12:20;4.53;;;2.57;;
946;SDS011;460;48.734;9.152;2022-07-23T01:14:53;2.83;;;2.57;;
946;SDS011;460;48.734;9.152;2022-07-23T01:17:24;2.80;;;2.50;;
946;SDS011;460;48.734;9.152;2022-07-23T01:19:51;4.03;;;2.30;;
946;SDS011;460;48.734;9.152;2022-07-23T01:22:21;4.43;;;2.00;;
946;SDS011;460;48.734;9.152;2022-07-23T01:24:52;3.07;;;2.80;;
946;SDS011;460;48.734;9.152;2022-07-23T01:27:19;2.60;;;1.80;;
946;SDS011;460;48.734;9.152;2022-07-23T01:29:46;3.23;;;2.93;;
946;SDS011;460;48.734;9.152;2022-07-23T01:32:14;3.13;;;2.60;;
946;SDS011;460;48.734;9.152;2022-07-23T01:34:41;2.77;;;2.57;;
946;SDS011;460;48.734;9.152;2022-07-23T01:37:09;3.60;;;2.87;;
946;SDS011;460;48.734;9.152;2022-07-23T01:39:38;2.80;;;2.60;;
946;SDS011;460;48.734;9.152;2022-07-23T01:42:07;2.60;;;2.30;;
946;SDS011;460;48.734;9.152;2022-07-23T01:44:34;2.30;;;2.10;;
946;SDS011;460;48.734;9.152;2022-07-23T01:47:02;1.80;;;1.70;;
946;SDS011;460;48.734;9.152;2022-07-23T01:49:30;2.17;;;1.97;;
946;SDS011;460;48.734;9.152;2022-07-23T01:51:58;3.37;;;3.07;;
946;SDS011;460;48.734;9.152;2022-07-23T01:54:32;3.90;;;2.40;;
946;SDS011;460;48.734;9.152;2022-07-23T01:57:00;2.60;;;2.40;;
946;SDS011;460;48.734;9.152;2022-07-23T01:59:29;2.43;;;2.23;;
946;SDS011;460;48.734;9.152;2022-07-23T02:01:57;2.70;;;2.40;;
946;SDS011;460;48.734;9.152;2022-07-23T02:04:24;2.50;;;2.30;;
946;SDS011;460;48.734;9.152;2022-07-23T02:06:52;2.73;;;2.23;;
946;SDS011;460;48.734;9.152;2022-07-23T02:09:19;2.70;;;2.50;;
946;SDS011;460;48.734;9.152;2022-07-23T02:11:46;1.57;;;1.47;;
946;SDS011;460;48.734;9.152;2022-07-23T02:14:13;3.33;;;1.70;;
946;SDS011;460;48.734;9.152;2022-07-23T02:16:41;2.80;;;2.60;;
946;SDS011;460;48.734;9.152;2022-07-23T02:19:08;2.13;;;2.00;;
946;SDS011;460;48.734;9.152;2022-07-23T02:21:35;3.80;;;2.77;;
946;SDS011;460;48.734;9.152;2022-07-23T02:24:02;2.40;;;2.20;;
946;SDS011;460;48.734;9.152;2022-07-23T02:26:30;3.87;;;2.93;;
946;SDS011;460;48.734;9.152;2022-07-23T02:28:59;2.77;;;2.30;;
946;SDS011;460;48.734;9.152;2022-07-23T02:31:26;3.00;;;2.80;;
946;SDS011;460;48.734;9.152;2022-07-23T02:33:55;2.90;;;2.47;;
946;SDS011;460;48.734;9.152;2022-07-23T02:36:22;1.80;;;1.70;;
946;SDS011;460;48.734;9.152;2022-07-23T02:38:49;2.57;;;2.10;;
946;SDS011;460;48.734;9.152;2022-07-23T02:41:16;3.00;;;2.37;;
946;SDS011;460;48.734;9.152;2022-07-23T02:43:44;3.70;;;2.20;;
946;SDS011;460;48.734;9.152;2022-07-23T02:46:11;1.80;;;1.60;;
946;SDS011;460;48.734;9.152;2022-07-23T02:48:38;2.90;;;2.63;;
946;SDS011;460;48.734;9.152;2022-07-23T02:51:06;3.20;;;2.90;;
946;SDS011;460;48.734;9.152;2022-07-23T02:53:33;2.57;;;2.37;;
946;SDS011;460;48.734;9.152;2022-07-23T02:56:00;2.17;;;2.03;;
946;SDS011;460;48.734;9.152;2022-07-23T02:58:27;2.37;;;2.10;;
946;SDS011;460;48.734;9.152;2022-07-23T03:00:54;2.90;;;2.60;;
946;SDS011;460;48.734;9.152;2022-07-23T03:03:21;2.20;;;2.00;;
946;SDS011;460;48.734;9.152;2022-07-23T03:05:47;2.17;;;1.97;;
946;SDS011;460;48.734;9.152;2022-07-23T03:08:16;2.43;;;2.27;;
946;SDS011;460;48.734;9.152;2022-07-23T03:10:43;2.17;;;1.97;;
946;SDS011;460;48.734;9.152;2022-07-23T03:13:09;2.90;;;2.17;;
946;SDS011;460;48.734;9.152;2022-07-23T03:15:36;3.27;;;2.97;;
946;SDS011;460;48.734;9.152;2022-07-23T03:18:03;3.03;;;2.57;;
946;SDS011;460;48.734;9.152;2022-07-23T03:20:31;3.83;;;2.27;;
946;SDS011;460;48.734;9.152;2022-07-23T03:22:57;2.93;;;2.47;;
946;SDS011;460;48.734;9.152;2022-07-23T03:25:26;3.20;;;2.90;;
946;SDS011;460;48.734;9.152;2022-07-23T03:27:53;2.70;;;2.40;;
946;SDS011;460;48.734;9.152;2022-07-23T03:30:20;3.80;;;3.50;;
946;SDS011;460;48.734;9.152;2022-07-23T03:32:46;3.13;;;2.83;;
946;SDS011;460;48.734;9.152;2022-07-23T03:35:13;3.13;;;2.83;;
946;SDS011;460;48.734;9.152;2022-07-23T03:37:40;2.50;;;2.30;;
946;SDS011;460;48.734;9.152;2022-07-23T03:40:07;2.87;;;2.60;;
946;SDS011;460;48.734;9.152;2022-07-23T03:42:36;3.57;;;3.27;;
946;SDS011;460;48.734;9.152;2022-07-23T03:45:05;3.57;;;2.93;;
946;SDS011;460;48.734;9.152;2022-07-23T03:47:32;2.70;;;2.50;;
946;SDS011;460;48.734;9.152;2022-07-23T03:49:59;3.20;;;2.90;;
946;SDS011;460;48.734;9.152;2022-07-23T03:52:26;3.07;;;2.77;;
946;SDS011;460;48.734;9.152;2022-07-23T03:54:53;3.17;;;2.97;;
946;SDS011;460;48.734;9.152;2022-07-23T03:57:19;4.57;;;2.73;;
946;SDS011;460;48.734;9.152;2022-07-23T03:59:48;3.43;;;3.13;;
946;SDS011;460;48.734;9.152;2022-07-23T04:02:14;2.63;;;2.37;;
946;SDS011;460;48.734;9.152;2022-07-23T04:04:41;4.63;;;2.73;;
946;SDS011;460;48.734;9.152;2022-07-23T04:07:08;2.63;;;2.30;;
946;SDS011;460;48.734;9.152;2022-07-23T04:09:35;3.50;;;3.20;;
946;SDS011;460;48.734;9.152;2022-07-23T04:12:02;3.33;;;2.97;;
946;SDS011;460;48.734;9.152;2022-07-23T04:14:29;3.33;;;2.90;;
946;SDS011;460;48.734;9.152;2022-07-23T04:16:57;2.73;;;2.53;;
946;SDS011;460;48.734;9.152;2022-07-23T04:19:25;3.70;;;2.70;;
946;SDS011;460;48.734;9.152;2022-07-23T04:21:58;4.13;;;3.13;;
946;SDS011;460;48.734;9.152;2022-07-23T04:24:44;3.67;;;2.93;;
946;SDS011;460;48.734;9.152;2022-07-23T04:27:11;4.17;;;2.90;;
946;SDS011;460;48.734;9.152;2022-07-23T04:29:43;2.53;;;2.33;;
946;SDS011;460;48.734;9.152;2022-07-23T04:32:11;2.47;;;2.20;;
946;SDS011;460;48.734;9.152;2022-07-23T04:34:40;3.00;;;2.63;;
946;SDS011;460;48.734;9.152;2022-07-23T04:37:07;2.70;;;2.50;;
946;SDS011;460;48.734;9.152;2022-07-23T04:39:34;2.17;;;2.07;;
946;SDS011;460;48.734;9.152;2022-07-23T04:42:00;3.53;;;3.23;;
946;SDS011;460;48.734;9.152;2022-07-23T04:44:27;2.80;;;2.60;;
946;SDS011;460;48.734;9.152;2022-07-23T04:46:54;3.03;;;2.40;;
946;SDS011;460;48.734;9.152;2022-07-23T04:49:43;3.30;;;2.73;;
946;SDS011;460;48.734;9.152;2022-07-23T04:52:21;2.57;;;2.37;;
946;SDS011;460;48.734;9.152;2022-07-23T04:55:05;3.00;;;2.70;;
946;SDS011;460;48.734;9.152;2022-07-23T04:57:53;3.53;;;3.20;;
946;SDS011;460;48.734;9.152;2022-07-23T05:00:26;3.27;;;3.00;;
946;SDS011;460;48.734;9.152;2022-07-23T05:03:06;2.73;;;2.53;;
946;SDS011;460;48.734;9.152;2022-07-23T05:05:36;2.67;;;2.47;;
946;SDS011;460;48.734;9.152;2022-07-23T05:08:03;3.03;;;2.40;;
946;SDS011;460;48.734;9.152;2022-07-23T05:10:35;3.03;;;2.73;;
946;SDS011;460;48.734;9.152;2022-07-23T05:13:08;2.83;;;2.53;;
946;SDS011;460;48.734;9.152;2022-07-23T05:15:48;3.60;;;3.07;;
946;SDS011;460;48.734;9.152;2022-07-23T05:18:15;3.97;;;2.80;;
946;SDS011;460;48.734;9.152;2022-07-23T05:20:44;3.50;;;2.73;;
946;SDS011;460;48.734;9.152;2022-07-23T05:23:11;3.00;;;2.73;;
946;SDS011;460;48.734;9.152;2022-07-23T05:25:39;3.27;;;2.73;;
946;SDS011;460;48.734;9.152;2022-07-23T05:28:06;3.00;;;2.70;;
946;SDS011;460;48.734;9.152;2022-07-23T05:30:33;3.40;;;2.90;;
946;SDS011;460;48.734;9.152;2022-07-23T05:32:59;4.53;;;3.60;;
946;SDS011;460;48.734;9.152;2022-07-23T05:35:26;3.50;;;3.10;;
946;SDS011;460;48.734;9.152;2022-07-23T05:37:55;3.50;;;3.27;;
946;SDS011;460;48.734;9.152;2022-07-23T05:40:22;3.83;;;3.13;;
946;SDS011;460;48.734;9.152;2022-07-23T05:42:55;3.27;;;2.97;;
946;SDS011;460;48.734;9.152;2022-07-23T05:45:21;3.50;;;2.97;;
946;SDS011;460;48.734;9.152;2022-07-23T05:47:49;3.37;;;3.07;;
946;SDS011;460;48.734;9.152;2022-07-23T05:50:16;4.00;;;3.00;;
946;SDS011;460;48.734;9.152;2022-07-23T05:52:46;3.40;;;3.10;;
946;SDS011;460;48.734;9.152;2022-07-23T05:55:27;4.10;;;3.70;;
946;SDS011;460;48.734;9.152;2022-07-23T05:58:04;3.70;;;3.30;;
946;SDS011;460;48.734;9.152;2022-07-23T06:00:38;3.93;;;3.53;;
946;SDS011;460;48.734;9.152;2022-07-23T06:03:11;3.43;;;3.10;;
946;SDS011;460;48.734;9.152;2022-07-23T06:05:39;3.40;;;3.10;;
946;SDS011;460;48.734;9.152;2022-07-23T06:08:05;4.10;;;3.63;;
946;SDS011;460;48.734;9.152;2022-07-23T06:10:34;3.70;;;3.40;;
946;SDS011;460;48.734;9.152;2022-07-23T06:13:01;3.10;;;2.63;;
946;SDS011;460;48.734;9.152;2022-07-23T06:15:29;3.37;;;3.07;;
946;SDS011;460;48.734;9.152;2022-07-23T06:18:02;3.57;;;3.27;;
946;SDS011;460;48.734;9.152;2022-07-23T06:20:33;4.00;;;3.20;;
946;SDS011;460;48.734;9.152;2022-07-23T06:23:01;3.53;;;3.23;;
946;SDS011;460;48.734;9.152;2022-07-23T06:25:43;4.10;;;3.10;;
946;SDS011;460;48.734;9.152;2022-07-23T06:28:37;3.50;;;3.20;;
946;SDS011;460;48.734;9.152;2022-07-23T06:31:06;4.60;;;3.47;;
946;SDS011;460;48.734;9.152;2022-07-23T06:33:33;4.03;;;3.50;;
946;SDS011;460;48.734;9.152;2022-07-23T06:36:00;4.17;;;3.77;;
946;SDS011;460;48.734;9.152;2022-07-23T06:38:27;5.67;;;3.03;;
946;SDS011;460;48.734;9.152;2022-07-23T06:40:55;4.13;;;3.53;;
946;SDS011;460;48.734;9.152;2022-07-23T06:43:22;3.07;;;2.67;;
946;SDS011;460;48.734;9.152;2022-07-23T06:45:49;3.30;;;3.00;;
946;SDS011;460;48.734;9.152;2022-07-23T06:48:15;4.20;;;3.80;;
946;SDS011;460;48.734;9.152;2022-07-23T06:50:42;2.70;;;2.50;;
946;SDS011;460;48.734;9.152;2022-07-23T06:53:09;2.93;;;2.70;;
946;SDS011;460;48.734;9.152;2022-07-23T06:55:36;3.60;;;2.73;;
946;SDS011;460;48.734;9.152;2022-07-23T06:58:05;3.03;;;2.77;;
946;SDS011;460;48.734;9.152;2022-07-23T07:00:34;3.90;;;3.50;;
946;SDS011;460;48.734;9.152;2022-07-23T07:03:00;3.50;;;3.20;;
946;SDS011;460;48.734;9.152;2022-07-23T07:05:27;3.93;;;2.93;;
946;SDS011;460;48.734;9.152;2022-07-23T07:07:54;3.03;;;2.73;;
946;SDS011;460;48.734;9.152;2022-07-23T07:10:21;4.17;;;2.77;;
946;SDS011;460;48.734;9.152;2022-07-23T07:12:48;3.00;;;2.77;;
946;SDS011;460;48.734;9.152;2022-07-23T07:15:17;4.53;;;3.60;;
946;SDS011;460;48.734;9.152;2022-07-23T07:17:44;3.73;;;3.27;;
946;SDS011;460;48.734;9.152;2022-07-23T07:20:10;3.67;;;3.37;;
946;SDS011;460;48.734;9.152;2022-07-23T07:22:37;3.87;;;3.37;;
946;SDS011;460;48.734;9.152;2022-07-23T07:25:05;3.30;;;3.00;;
946;SDS011;460;48.734;9.152;2022-07-23T07:27:32;3.87;;;3.47;;
946;SDS011;460;48.734;9.152;2022-07-23T07:29:59;3.87;;;2.83;;
946;SDS011;460;48.734;9.152;2022-07-23T07:32:27;3.50;;;3.20;;
946;SDS011;460;48.734;9.152;2022-07-23T07:34:54;4.10;;;3.70;;
946;SDS011;460;48.734;9.152;2022-07-23T07:37:21;3.80;;;3.30;;
946;SDS011;460;48.734;9.152;2022-07-23T07:39:48;3.27;;;3.07;;
946;SDS011;460;48.734;9.152;2022-07-23T07:42:15;2.93;;;2.67;;
946;SDS011;460;48.734;9.152;2022-07-23T07:44:42;3.30;;;3.00;;
946;SDS011;460;48.734;9.152;2022-07-23T07:47:09;3.50;;;3.20;;
946;SDS011;460;48.734;9.152;2022-07-23T07:49:37;4.07;;;3.33;;
946;SDS011;460;48.734;9.152;2022-07-23T07:52:04;3.17;;;2.73;;
946;SDS011;460;48.734;9.152;2022-07-23T07:54:31;5.10;;;4.27;;
946;SDS011;460;48.734;9.152;2022-07-23T07:56:58;3.23;;;2.93;;
946;SDS011;460;48.734;9.152;2022-07-23T07:59:25;3.63;;;3.30;;
946;SDS011;460;48.734;9.152;2022-07-23T08:01:52;3.33;;;3.03;;
946;SDS011;460;48.734;9.152;2022-07-23T08:04:19;3.20;;;2.63;;
946;SDS011;460;48.734;9.152;2022-07-23T08:06:47;3.47;;;3.03;;
946;SDS011;460;48.734;9.152;2022-07-23T08:12:07;4.33;;;2.93;;
946;SDS011;460;48.734;9.152;2022-07-23T08:14:35;5.20;;;3.00;;
946;SDS011;460;48.734;9.152;2022-07-23T08:17:02;4.13;;;3.13;;
946;SDS011;460;48.734;9.152;2022-07-23T08:19:29;3.10;;;2.80;;
946;SDS011;460;48.734;9.152;2022-07-23T08:22:00;3.43;;;3.07;;
946;SDS011;460;48.734;9.152;2022-07-23T08:24:27;3.80;;;3.50;;
946;SDS011;460;48.734;9.152;2022-07-23T08:26:54;3.30;;;3.00;;
946;SDS011;460;48.734;9.152;2022-07-23T08:29:21;3.37;;;3.07;;
946;SDS011;460;48.734;9.152;2022-07-23T08:31:48;4.27;;;3.00;;
946;SDS011;460;48.734;9.152;2022-07-23T08:34:15;2.70;;;2.50;;
946;SDS011;460;48.734;9.152;2022-07-23T08:36:45;3.87;;;3.33;;
946;SDS011;460;48.734;9.152;2022-07-23T08:39:15;4.90;;;4.17;;
946;SDS011;460;48.734;9.152;2022-07-23T08:41:41;4.10;;;3.67;;
946;SDS011;460;48.734;9.152;2022-07-23T08:44:09;2.83;;;2.57;;
946;SDS011;460;48.734;9.152;2022-07-23T08:46:36;4.40;;;3.17;;
946;SDS011;460;48.734;9.152;2022-07-23T08:49:17;3.83;;;3.47;;
946;SDS011;460;48.734;9.152;2022-07-23T08:52:10;3.10;;;2.80;;
946;SDS011;460;48.734;9.152;2022-07-23T08:54:40;3.20;;;2.90;;
946;SDS011;460;48.734;9.152;2022-07-23T08:57:09;3.43;;;3.13;;
946;SDS011;460;48.734;9.152;2022-07-23T08:59:38;3.67;;;3.33;;
946;SDS011;460;48.734;9.152;2022-07-23T09:02:12;3.03;;;2.73;;
946;SDS011;460;48.734;9.152;2022-07-23T09:04:44;3.70;;;3.40;;
946;SDS011;460;48.734;9.152;2022-07-23T09:07:11;2.67;;;2.47;;
946;SDS011;460;48.734;9.152;2022-07-23T09:09:39;3.90;;;3.40;;
946;SDS011;460;48.734;9.152;2022-07-23T09:12:07;3.40;;;3.10;;
946;SDS011;460;48.734;9.152;2022-07-23T09:14:36;4.50;;;3.67;;
946;SDS011;460;48.734;9.152;2022-07-23T09:17:10;3.73;;;3.40;;
946;SDS011;460;48.734;9.152;2022-07-23T09:19:38;3.47;;;3.10;;
946;SDS011;460;48.734;9.152;2022-07-23T09:22:18;3.90;;;3.17;;
946;SDS011;460;48.734;9.152;2022-07-23T09:25:04;3.20;;;3.00;;
946;SDS011;460;48.734;9.152;2022-07-23T09:30:20;3.73;;;3.30;;
946;SDS011;460;48.734;9.152;2022-07-23T09:33:04;3.00;;;2.80;;
946;SDS011;460;48.734;9.152;2022-07-23T09:38:17;3.60;;;3.30;;
946;SDS011;460;48.734;9.152;2022-07-23T09:41:04;3.47;;;3.13;;
946;SDS011;460;48.734;9.152;2022-07-23T09:43:32;3.10;;;2.90;;
946;SDS011;460;48.734;9.152;2022-07-23T09:48:45;3.13;;;2.93;;
946;SDS011;460;48.734;9.152;2022-07-23T09:51:12;2.70;;;2.50;;
946;SDS011;460;48.734;9.152;2022-07-23T09:53:39;3.73;;;3.43;;
946;SDS011;460;48.734;9.152;2022-07-23T09:56:08;3.63;;;3.20;;
946;SDS011;460;48.734;9.152;2022-07-23T09:58:37;3.30;;;3.00;;
946;SDS011;460;48.734;9.152;2022-07-23T10:01:12;3.47;;;3.17;;
946;SDS011;460;48.734;9.152;2022-07-23T10:03:40;3.60;;;3.03;;
946;SDS011;460;48.734;9.152;2022-07-23T10:06:08;5.53;;;3.63;;
946;SDS011;460;48.734;9.152;2022-07-23T10:08:36;3.53;;;3.23;;
946;SDS011;460;48.734;9.152;2022-07-23T10:11:08;3.13;;;2.90;;
946;SDS011;460;48.734;9.152;2022-07-23T10:13:37;3.27;;;3.07;;
946;SDS011;460;48.734;9.152;2022-07-23T10:16:18;3.40;;;3.13;;
946;SDS011;460;48.734;9.152;2022-07-23T10:18:45;3.23;;;2.93;;
946;SDS011;460;48.734;9.152;2022-07-23T10:21:12;3.60;;;3.30;;
946;SDS011;460;48.734;9.152;2022-07-23T10:23:47;3.40;;;3.10;;
946;SDS011;460;48.734;9.152;2022-07-23T10:26:29;4.03;;;3.47;;
946;SDS011;460;48.734;9.152;2022-07-23T10:29:05;4.37;;;3.80;;
946;SDS011;460;48.734;9.152;2022-07-23T10:31:41;3.87;;;3.57;;
946;SDS011;460;48.734;9.152;2022-07-23T10:34:18;3.43;;;3.13;;
946;SDS011;460;48.734;9.152;2022-07-23T10:36:52;4.13;;;3.73;;
946;SDS011;460;48.734;9.152;2022-07-23T10:39:24;3.50;;;2.80;;
946;SDS011;460;48.734;9.152;2022-07-23T10:42:02;4.00;;;3.53;;
946;SDS011;460;48.734;9.152;2022-07-23T10:44:38;3.27;;;2.87;;
946;SDS011;460;48.734;9.152;2022-07-23T10:47:07;4.20;;;3.37;;
946;SDS011;460;48.734;9.152;2022-07-23T10:50:18;4.50;;;2.80;;
946;SDS011;460;48.734;9.152;2022-07-23T10:55:46;4.47;;;4.07;;
946;SDS011;460;48.734;9.152;2022-07-23T10:58:20;3.50;;;3.20;;
946;SDS011;460;48.734;9.152;2022-07-23T11:01:11;3.17;;;2.93;;
946;SDS011;460;48.734;9.152;2022-07-23T11:03:59;3.17;;;2.97;;
946;SDS011;460;48.734;9.152;2022-07-23T11:09:38;4.70;;;3.70;;
946;SDS011;460;48.734;9.152;2022-07-23T11:15:00;4.37;;;3.97;;
946;SDS011;460;48.734;9.152;2022-07-23T11:17:28;3.57;;;3.27;;
946;SDS011;460;48.734;9.152;2022-07-23T11:22:49;3.80;;;3.50;;
946;SDS011;460;48.734;9.152;2022-07-23T11:25:31;3.40;;;3.10;;
946;SDS011;460;48.734;9.152;2022-07-23T11:28:08;3.20;;;2.90;;
946;SDS011;460;48.734;9.152;2022-07-23T11:30:40;3.47;;;3.17;;
946;SDS011;460;48.734;9.152;2022-07-23T11:33:19;3.00;;;2.80;;
946;SDS011;460;48.734;9.152;2022-07-23T11:35:47;3.70;;;3.40;;
946;SDS011;460;48.734;9.152;2022-07-23T11:38:25;4.33;;;3.93;;
946;SDS011;460;48.734;9.152;2022-07-23T11:40:53;4.23;;;2.97;;
946;SDS011;460;48.734;9.152;2022-07-23T11:43:22;4.07;;;3.20;;
946;SDS011;460;48.734;9.152;2022-07-23T11:45:52;4.70;;;3.63;;
946;SDS011;460;48.734;9.152;2022-07-23T11:48:23;3.83;;;3.53;;
946;SDS011;460;48.734;9.152;2022-07-23T11:50:51;4.50;;;3.50;;
946;SDS011;460;48.734;9.152;2022-07-23T11:53:22;4.00;;;3.60;;
946;SDS011;460;48.734;9.152;2022-07-23T11:55:50;4.33;;;3.63;;
946;SDS011;460;48.734;9.152;2022-07-23T11:58:17;3.70;;;3.40;;
946;SDS011;460;48.734;9.152;2022-07-23T12:00:44;3.73;;;3.43;;
946;SDS011;460;48.734;9.152;2022-07-23T12:03:12;3.93;;;3.43;;
946;SDS011;460;48.734;9.152;2022-07-23T12:05:40;3.80;;;3.50;;
946;SDS011;460;48.734;9.152;2022-07-23T12:08:08;3.77;;;3.47;;
946;SDS011;460;48.734;9.152;2022-07-23T12:10:37;3.63;;;3.23;;
946;SDS011;460;48.734;9.152;2022-07-23T12:13:07;3.93;;;3.63;;
946;SDS011;460;48.734;9.152;2022-07-23T12:15:37;4.00;;;3.70;;
946;SDS011;460;48.734;9.152;2022-07-23T12:18:05;4.73;;;4.33;;
946;SDS011;460;48.734;9.152;2022-07-23T12:20:35;3.27;;;3.00;;
946;SDS011;460;48.734;9.152;2022-07-23T12:23:04;4.10;;;3.73;;
946;SDS011;460;48.734;9.152;2022-07-23T12:25:33;3.00;;;2.77;;
946;SDS011;460;48.734;9.152;2022-07-23T12:28:03;4.07;;;3.70;;
946;SDS011;460;48.734;9.152;2022-07-23T12:30:32;3.60;;;3.30;;
946;SDS011;460;48.734;9.152;2022-07-23T12:33:00;3.90;;;3.60;;
946;SDS011;460;48.734;9.152;2022-07-23T12:35:32;3.93;;;3.50;;
946;SDS011;460;48.734;9.152;2022-07-23T12:38:03;3.87;;;3.47;;
946;SDS011;460;48.734;9.152;2022-07-23T12:40:32;3.87;;;3.47;;
946;SDS011;460;48.734;9.152;2022-07-23T12:43:02;3.93;;;3.53;;
946;SDS011;460;48.734;9.152;2022-07-23T12:45:42;5.50;;;4.27;;
946;SDS011;460;48.734;9.152;2022-07-23T12:48:21;4.27;;;3.97;;
946;SDS011;460;48.734;9.152;2022-07-23T12:51:00;3.63;;;3.33;;
946;SDS011;460;48.734;9.152;2022-07-23T12:53:29;3.97;;;3.67;;
946;SDS011;460;48.734;9.152;2022-07-23T12:55:59;4.87;;;4.43;;
946;SDS011;460;48.734;9.152;2022-07-23T12:58:39;4.80;;;4.40;;
946;SDS011;460;48.734;9.152;2022-07-23T13:01:08;3.70;;;3.40;;
946;SDS011;460;48.734;9.152;2022-07-23T13:03:37;4.93;;;4.53;;
946;SDS011;460;48.734;9.152;2022-07-23T13:06:07;4.00;;;3.70;;
946;SDS011;460;48.734;9.152;2022-07-23T13:08:35;4.60;;;4.20;;
946;SDS011;460;48.734;9.152;2022-07-23T13:11:05;4.23;;;3.93;;
946;SDS011;460;48.734;9.152;2022-07-23T13:13:33;3.37;;;3.07;;
946;SDS011;460;48.734;9.152;2022-07-23T13:16:01;4.17;;;3.77;;
946;SDS011;460;48.734;9.152;2022-07-23T13:18:32;6.13;;;5.50;;
946;SDS011;460;48.734;9.152;2022-07-23T13:21:00;4.23;;;3.93;;
946;SDS011;460;48.734;9.152;2022-07-23T13:23:30;4.00;;;3.60;;
946;SDS011;460;48.734;9.152;2022-07-23T13:26:01;4.83;;;3.80;;
946;SDS011;460;48.734;9.152;2022-07-23T13:28:29;3.47;;;3.20;;
946;SDS011;460;48.734;9.152;2022-07-23T13:30:56;4.90;;;4.50;;
946;SDS011;460;48.734;9.152;2022-07-23T13:33:26;3.70;;;3.40;;
946;SDS011;460;48.734;9.152;2022-07-23T13:35:53;4.80;;;4.40;;
946;SDS011;460;48.734;9.152;2022-07-23T13:38:20;3.00;;;2.80;;
946;SDS011;460;48.734;9.152;2022-07-23T13:40:49;4.63;;;3.83;;
946;SDS011;460;48.734;9.152;2022-07-23T13:43:22;4.00;;;3.70;;
946;SDS011;460;48.734;9.152;2022-07-23T13:45:51;4.47;;;3.43;;
946;SDS011;460;48.734;9.152;2022-07-23T13:48:19;4.93;;;4.50;;
946;SDS011;460;48.734;9.152;2022-07-23T13:50:46;4.03;;;3.70;;
946;SDS011;460;48.734;9.152;2022-07-23T13:53:16;4.10;;;3.80;;
946;SDS011;460;48.734;9.152;2022-07-23T13:55:44;4.03;;;3.70;;
946;SDS011;460;48.734;9.152;2022-07-23T13:58:12;3.90;;;3.60;;
946;SDS011;460;48.734;9.152;2022-07-23T14:00:41;4.70;;;4.33;;
946;SDS011;460;48.734;9.152;2022-07-23T14:03:12;4.07;;;3.77;;
946;SDS011;460;48.734;9.152;2022-07-23T14:05:40;4.70;;;4.30;;
946;SDS011;460;48.734;9.152;2022-07-23T14:08:08;5.10;;;4.60;;
946;SDS011;460;48.734;9.152;2022-07-23T14:10:36;4.30;;;3.90;;
946;SDS011;460;48.734;9.152;2022-07-23T14:13:03;4.07;;;3.70;;
946;SDS011;460;48.734;9.152;2022-07-23T14:15:32;4.33;;;3.93;;
946;SDS011;460;48.734;9.152;2022-07-23T14:17:59;4.50;;;4.10;;
946;SDS011;460;48.734;9.152;2022-07-23T14:20:26;5.00;;;4.47;;
946;SDS011;460;48.734;9.152;2022-07-23T14:22:53;3.63;;;3.33;;
946;SDS011;460;48.734;9.152;2022-07-23T14:25:25;4.43;;;4.00;;
946;SDS011;460;48.734;9.152;2022-07-23T14:27:53;4.30;;;4.00;;
946;SDS011;460;48.734;9.152;2022-07-23T14:30:25;4.93;;;4.47;;
946;SDS011;460;48.734;9.152;2022-07-23T14:36:23;4.70;;;4.30;;
946;SDS011;460;48.734;9.152;2022-07-23T14:38:53;4.60;;;4.20;;
946;SDS011;460;48.734;9.152;2022-07-23T14:41:28;4.40;;;4.10;;
946;SDS011;460;48.734;9.152;2022-07-23T14:43:55;4.30;;;4.00;;
946;SDS011;460;48.734;9.152;2022-07-23T14:46:22;4.47;;;4.07;;
946;SDS011;460;48.734;9.152;2022-07-23T14:49:01;4.10;;;3.80;;
946;SDS011;460;48.734;9.152;2022-07-23T14:51:34;4.67;;;4.27;;
946;SDS011;460;48.734;9.152;2022-07-23T14:57:15;4.30;;;3.97;;
946;SDS011;460;48.734;9.152;2022-07-23T14:59:42;3.60;;;3.30;;
946;SDS011;460;48.734;9.152;2022-07-23T15:02:14;3.63;;;3.33;;
946;SDS011;460;48.734;9.152;2022-07-23T15:04:49;3.23;;;3.00;;
946;SDS011;460;48.734;9.152;2022-07-23T15:07:28;4.50;;;4.10;;
946;SDS011;460;48.734;9.152;2022-07-23T15:09:56;4.43;;;3.93;;
946;SDS011;460;48.734;9.152;2022-07-23T15:12:23;4.70;;;4.30;;
946;SDS011;460;48.734;9.152;2022-07-23T15:14:50;4.20;;;3.87;;
946;SDS011;460;48.734;9.152;2022-07-23T15:17:17;4.40;;;4.00;;
946;SDS011;460;48.734;9.152;2022-07-23T15:19:45;4.60;;;4.20;;
946;SDS011;460;48.734;9.152;2022-07-23T15:22:12;4.10;;;3.57;;
946;SDS011;460;48.734;9.152;2022-07-23T15:24:39;4.20;;;3.80;;
946;SDS011;460;48.734;9.152;2022-07-23T15:27:06;4.17;;;3.77;;
946;SDS011;460;48.734;9.152;2022-07-23T15:29:33;4.70;;;4.30;;
946;SDS011;460;48.734;9.152;2022-07-23T15:32:01;4.13;;;3.70;;
946;SDS011;460;48.734;9.152;2022-07-23T15:34:30;4.53;;;3.77;;
946;SDS011;460;48.734;9.152;2022-07-23T15:37:00;4.37;;;4.03;;
946;SDS011;460;48.734;9.152;2022-07-23T15:39:27;3.90;;;3.60;;
946;SDS011;460;48.734;9.152;2022-07-23T15:41:57;4.23;;;3.83;;
946;SDS011;460;48.734;9.152;2022-07-23T15:44:24;4.20;;;3.80;;
946;SDS011;460;48.734;9.152;2022-07-23T15:46:51;3.90;;;3.50;;
946;SDS011;460;48.734;9.152;2022-07-23T15:49:18;4.70;;;4.30;;
946;SDS011;460;48.734;9.152;2022-07-23T15:51:45;4.30;;;3.90;;
946;SDS011;460;48.734;9.152;2022-07-23T15:54:13;5.10;;;4.60;;
946;SDS011;460;48.734;9.152;2022-07-23T15:56:40;4.50;;;4.10;;
946;SDS011;460;48.734;9.152;2022-07-23T15:59:11;4.80;;;4.40;;
946;SDS011;460;48.734;9.152;2022-07-23T16:01:41;9.10;;;4.73;;
946;SDS011;460;48.734;9.152;2022-07-23T16:04:10;3.90;;;3.50;;
946;SDS011;460;48.734;9.152;2022-07-23T16:06:37;6.10;;;4.50;;
946;SDS011;460;48.734;9.152;2022-07-23T16:09:07;4.07;;;3.67;;
946;SDS011;460;48.734;9.152;2022-07-23T16:11:36;4.10;;;3.70;;
946;SDS011;460;48.734;9.152;2022-07-23T16:14:03;4.80;;;4.30;;
946;SDS011;460;48.734;9.152;2022-07-23T16:16:33;4.47;;;4.07;;
946;SDS011;460;48.734;9.152;2022-07-23T16:19:00;6.60;;;4.60;;
946;SDS011;460;48.734;9.152;2022-07-23T16:21:29;4.53;;;4.13;;
946;SDS011;460;48.734;9.152;2022-07-23T16:23:56;4.27;;;3.97;;
946;SDS011;460;48.734;9.152;2022-07-23T16:26:26;4.70;;;4.30;;
946;SDS011;460;48.734;9.152;2022-07-23T16:28:54;4.47;;;3.80;;